Time;durP1;ratioP1;P1;durP2;ratioP2;P2;SDS_P1;SDS_P2;PMS_P1;PMS_P2;Temp;Humidity;BMP_temperature;BMP_pressure;BME280_temperature;BME280_humidity;BME280_pressure;Samples;Min_cycle;Max_cycle;Signal;HPM_P1;HPM_P2
2022/10/01 00:01:07;;;;;;;11.32;8.07;;;;;;;11.18;100.00;100260.22;5026573;28;20114;-77
2022/10/01 00:03:34;;;;;;;10.00;7.65;;;;;;;11.10;100.00;100255.81;5022988;28;20032;-77
2022/10/01 00:06:04;;;;;;;10.90;8.95;;;;;;;11.18;100.00;100257.44;5023853;28;20307;-77
2022/10/01 00:08:31;;;;;;;11.18;8.88;;;;;;;11.19;100.00;100235.81;5021473;28;20037;-77
2022/10/01 00:11:00;;;;;;;13.05;8.85;;;;;;;11.15;100.00;100240.63;5020899;28;20033;-77
2022/10/01 00:13:26;;;;;;;11.38;8.82;;;;;;;11.06;100.00;100235.41;5024459;28;20029;-77
2022/10/01 00:15:52;;;;;;;12.90;10.05;;;;;;;10.96;100.00;100228.59;5027112;28;20021;-77
2022/10/01 00:18:17;;;;;;;12.48;9.45;;;;;;;11.15;100.00;100221.00;5028566;28;20029;-78
2022/10/01 00:20:43;;;;;;;13.55;9.43;;;;;;;11.15;100.00;100216.22;5028305;28;20511;-78
2022/10/01 00:23:10;;;;;;;14.20;9.88;;;;;;;10.99;100.00;100202.59;5029189;28;20095;-78
2022/10/01 00:25:35;;;;;;;11.75;9.25;;;;;;;10.96;100.00;100194.16;5030265;28;20033;-77
2022/10/01 00:28:01;;;;;;;11.90;9.38;;;;;;;10.85;100.00;100182.94;5027717;28;20477;-77
2022/10/01 00:30:26;;;;;;;13.20;9.57;;;;;;;10.98;100.00;100178.59;5030007;28;20024;-77
2022/10/01 00:32:53;;;;;;;14.43;9.52;;;;;;;10.94;100.00;100169.38;5026178;28;20022;-77
2022/10/01 00:35:21;;;;;;;14.63;9.70;;;;;;;10.91;100.00;100164.56;5029135;28;20922;-78
2022/10/01 00:37:49;;;;;;;12.15;9.80;;;;;;;10.96;100.00;100154.97;5024679;28;20462;-77
2022/10/01 00:40:14;;;;;;;14.55;9.60;;;;;;;10.98;100.00;100141.38;5027260;28;20485;-77
2022/10/01 00:42:40;;;;;;;14.55;9.77;;;;;;;10.91;100.00;100124.56;5026976;28;20029;-79
2022/10/01 00:45:06;;;;;;;14.63;10.88;;;;;;;10.87;100.00;100123.78;5026792;28;20053;-78
2022/10/01 00:47:35;;;;;;;15.88;10.68;;;;;;;10.85;100.00;100106.56;5028711;28;20420;-77
2022/10/01 00:50:25;;;;;;;13.73;10.75;;;;;;;10.91;100.00;100116.97;5027604;28;20029;-79
2022/10/01 00:52:55;;;;;;;16.30;11.52;;;;;;;10.90;100.00;100103.34;5026962;28;20021;-77
2022/10/01 00:55:45;;;;;;;14.35;10.10;;;;;;;10.91;100.00;100097.38;5031006;28;20390;-77
2022/10/01 00:58:13;;;;;;;12.10;8.85;;;;;;;10.89;100.00;100088.56;5025187;28;20807;-78
2022/10/01 01:00:39;;;;;;;14.75;10.90;;;;;;;10.94;100.00;100091.00;5025685;28;20566;-77
2022/10/01 01:03:05;;;;;;;12.85;9.85;;;;;;;10.94;100.00;100070.56;5022439;28;20030;-77
2022/10/01 01:05:31;;;;;;;12.15;10.40;;;;;;;10.93;100.00;100069.78;5021210;28;20045;-77
2022/10/01 01:08:00;;;;;;;14.27;10.25;;;;;;;10.80;100.00;100059.38;5024806;28;20034;-77
2022/10/01 01:10:48;;;;;;;13.82;8.73;;;;;;;10.99;100.00;100053.38;5024291;28;20017;-78
2022/10/01 01:13:39;;;;;;;15.80;11.02;;;;;;;10.95;100.00;100035.78;5019156;28;20041;-77
2022/10/01 01:16:11;;;;;;;15.65;10.13;;;;;;;10.97;100.00;100027.78;5028644;28;20064;-77
2022/10/01 01:18:46;;;;;;;13.40;10.60;;;;;;;10.86;100.00;100007.41;5026302;28;20163;-78
2022/10/01 01:21:32;;;;;;;11.52;9.55;;;;;;;10.82;100.00;100001.00;5027348;28;20025;-77
2022/10/01 01:24:26;;;;;;;12.05;8.88;;;;;;;10.92;100.00;100002.97;5023167;28;20029;-77
2022/10/01 01:27:27;;;;;;;15.93;9.52;;;;;;;10.85;100.00;100014.19;5026659;28;20018;-78
2022/10/01 01:30:04;;;;;;;12.23;9.10;;;;;;;10.91;100.00;100027.38;5023180;28;20053;-77
2022/10/01 01:32:31;;;;;;;12.23;9.10;;;;;;;10.93;100.00;100027.78;5020925;28;20029;-77
2022/10/01 01:35:01;;;;;;;13.93;9.70;;;;;;;10.88;100.00;100031.00;5017065;28;20041;-77
2022/10/01 01:37:32;;;;;;;11.88;8.30;;;;;;;10.93;100.00;100021.38;5023159;28;20036;-77
2022/10/01 01:39:58;;;;;;;13.90;9.27;;;;;;;10.93;100.00;100010.19;5027105;28;20371;-77
2022/10/01 01:42:36;;;;;;;13.77;9.05;;;;;;;10.94;100.00;100000.56;5024494;28;20034;-76
2022/10/01 01:45:05;;;;;;;12.00;8.90;;;;;;;10.94;100.00;100006.16;5026138;28;20404;-77
2022/10/01 01:47:33;;;;;;;12.13;8.32;;;;;;;11.00;100.00;99993.34;5027307;28;20057;-79
2022/10/01 01:50:01;;;;;;;11.23;7.90;;;;;;;10.93;100.00;99993.38;5022838;28;20048;-77
2022/10/01 01:52:27;;;;;;;12.57;8.15;;;;;;;10.84;100.00;99990.19;5030592;28;20643;-78
2022/10/01 01:54:54;;;;;;;10.65;8.25;;;;;;;10.83;100.00;99966.97;5028947;28;20025;-78
2022/10/01 01:57:20;;;;;;;9.38;8.15;;;;;;;10.81;100.00;99949.00;5030819;28;20013;-78
2022/10/01 01:59:46;;;;;;;11.98;9.32;;;;;;;10.78;100.00;99945.81;5026358;28;20066;-78
2022/10/01 02:02:34;;;;;;;11.57;9.05;;;;;;;10.87;100.00;99970.59;5020669;28;20048;-79
2022/10/01 02:05:04;;;;;;;11.68;7.95;;;;;;;10.99;100.00;99960.97;5027832;28;20033;-78
2022/10/01 02:07:49;;;;;;;11.23;9.35;;;;;;;10.93;100.00;99928.97;5029092;28;20140;-78
2022/10/01 02:10:26;;;;;;;9.70;7.85;;;;;;;10.86;100.00;99867.41;5023967;28;20139;-78
2022/10/01 02:13:22;;;;;;;10.77;8.10;;;;;;;10.76;100.00;99867.03;5028091;28;20280;-79
2022/10/01 02:15:58;;;;;;;11.52;8.00;;;;;;;10.80;100.00;99877.44;5032494;28;20555;-78
2022/10/01 02:18:41;;;;;;;10.80;7.60;;;;;;;10.81;100.00;99884.63;5028402;28;20025;-78
2022/10/01 02:21:37;;;;;;;11.65;7.60;;;;;;;10.81;100.00;99918.22;5025176;28;20505;-76
2022/10/01 02:24:26;;;;;;;10.43;7.88;;;;;;;10.83;100.00;99922.19;5028698;28;20036;-77
2022/10/01 02:26:54;;;;;;;9.27;7.40;;;;;;;10.85;100.00;99924.59;5032613;28;20497;-77
2022/10/01 02:29:22;;;;;;;9.23;7.07;;;;;;;10.82;100.00;99909.41;5029483;28;20087;-77
2022/10/01 02:31:52;;;;;;;11.45;7.40;;;;;;;10.88;100.00;99929.38;5030048;28;20107;-77
2022/10/01 02:34:19;;;;;;;9.32;6.57;;;;;;;10.91;100.00;99934.19;5028079;28;20055;-77
2022/10/01 02:36:46;;;;;;;7.82;6.57;;;;;;;10.91;100.00;99939.78;5026843;28;20044;-77
2022/10/01 02:39:15;;;;;;;8.73;6.40;;;;;;;10.95;100.00;99934.97;5023197;28;20037;-77
2022/10/01 02:41:45;;;;;;;10.10;6.18;;;;;;;10.99;100.00;99930.16;5027047;28;20401;-77
2022/10/01 02:44:19;;;;;;;6.90;5.70;;;;;;;10.89;100.00;99933.78;5024550;28;20025;-77
2022/10/01 02:47:06;;;;;;;6.43;5.25;;;;;;;10.96;100.00;99919.75;5030147;28;20037;-76
2022/10/01 02:49:32;;;;;;;7.47;5.18;;;;;;;10.89;100.00;99928.19;5026944;28;20099;-78
2022/10/01 02:52:19;;;;;;;9.75;5.35;;;;;;;10.84;100.00;99937.00;5029427;28;20972;-78
2022/10/01 02:54:50;;;;;;;6.93;5.28;;;;;;;10.93;100.00;99926.19;5030037;28;21603;-76
2022/10/01 02:57:23;;;;;;;8.80;5.90;;;;;;;10.87;100.00;99923.00;5027899;28;20029;-77
2022/10/01 02:59:56;;;;;;;7.78;5.43;;;;;;;10.89;100.00;99922.59;5026010;28;20053;-78
2022/10/01 03:02:24;;;;;;;8.95;5.13;;;;;;;10.84;100.00;99928.63;5026679;28;20045;-77
2022/10/01 03:04:49;;;;;;;6.22;4.68;;;;;;;10.92;100.00;99913.38;5029393;28;20052;-78
2022/10/01 03:07:15;;;;;;;6.95;4.63;;;;;;;10.91;100.00;99911.78;5027567;28;20430;-78
2022/10/01 03:09:41;;;;;;;7.72;5.50;;;;;;;10.92;100.00;99904.97;5025407;28;20463;-77
2022/10/01 03:12:07;;;;;;;6.47;4.95;;;;;;;10.91;100.00;99917.38;5027607;28;20040;-78
2022/10/01 03:14:32;;;;;;;9.30;5.57;;;;;;;10.89;100.00;99908.59;5024150;28;20022;-76
2022/10/01 03:16:58;;;;;;;8.48;5.22;;;;;;;10.92;100.00;99897.41;5016235;28;20056;-77
2022/10/01 03:19:23;;;;;;;7.47;5.72;;;;;;;10.90;100.00;99898.97;5024789;28;20035;-77
2022/10/01 03:21:49;;;;;;;7.95;5.55;;;;;;;10.98;100.00;99906.16;5027730;28;20060;-78
2022/10/01 03:24:14;;;;;;;8.70;5.80;;;;;;;10.95;100.00;99895.78;5026873;28;20563;-77
2022/10/01 03:26:40;;;;;;;6.75;5.47;;;;;;;10.93;100.00;99900.97;5024537;28;20317;-77
2022/10/01 03:29:05;;;;;;;6.65;4.78;;;;;;;10.89;100.00;99892.59;5026589;28;20026;-76
2022/10/01 03:31:31;;;;;;;6.72;4.32;;;;;;;11.03;100.00;99891.75;5025002;28;20041;-76
2022/10/01 03:33:59;;;;;;;5.85;4.65;;;;;;;10.93;100.00;99878.59;5028150;28;20105;-76
2022/10/01 03:36:28;;;;;;;4.65;4.10;;;;;;;10.97;100.00;99877.38;5027737;28;20018;-78
2022/10/01 03:38:54;;;;;;;5.85;4.15;;;;;;;11.00;100.00;99881.34;5026980;28;20408;-77
2022/10/01 03:41:20;;;;;;;5.45;3.63;;;;;;;10.96;100.00;99883.38;5027644;28;20075;-78
2022/10/01 03:43:46;;;;;;;4.47;3.63;;;;;;;11.04;100.00;99870.94;5028478;28;20033;-77
2022/10/01 03:46:11;;;;;;;5.25;3.92;;;;;;;10.97;100.00;99859.78;5028581;28;20057;-77
2022/10/01 03:48:37;;;;;;;4.40;3.40;;;;;;;10.91;100.00;99862.19;5027021;28;20104;-77
2022/10/01 03:51:02;;;;;;;3.53;2.85;;;;;;;10.97;100.00;99865.38;5027953;28;20163;-76
2022/10/01 03:53:30;;;;;;;2.75;2.17;;;;;;;11.03;100.00;99871.38;5024600;28;20108;-76
2022/10/01 03:55:56;;;;;;;4.15;2.92;;;;;;;11.12;100.00;99864.09;5028906;28;20504;-76
2022/10/01 03:58:22;;;;;;;4.63;2.88;;;;;;;11.07;100.00;99870.16;5024660;28;20047;-80
2022/10/01 04:00:48;;;;;;;2.85;2.20;;;;;;;11.04;100.00;99867.34;5021131;28;20053;-78
2022/10/01 04:03:14;;;;;;;2.28;2.05;;;;;;;11.09;100.00;99862.13;5014704;28;20021;-79
2022/10/01 04:05:44;;;;;;;3.35;2.10;;;;;;;11.12;100.00;99866.91;5019634;28;20037;-78
2022/10/01 04:08:11;;;;;;;2.65;2.38;;;;;;;11.13;100.00;99859.28;5016059;28;20032;-77
2022/10/01 04:10:36;;;;;;;2.83;2.13;;;;;;;11.21;100.00;99860.06;5017537;28;20477;-77
2022/10/01 04:13:03;;;;;;;2.17;1.80;;;;;;;11.18;100.00;99856.88;5024069;28;20033;-76
2022/10/01 04:15:29;;;;;;;2.03;1.83;;;;;;;11.19;100.00;99861.28;5026053;28;20029;-75
2022/10/01 04:17:54;;;;;;;2.05;1.83;;;;;;;11.18;100.00;99854.09;5025067;28;20057;-75
2022/10/01 04:20:20;;;;;;;3.55;2.35;;;;;;;11.17;100.00;99869.31;5026990;28;20034;-77
2022/10/01 04:22:45;;;;;;;4.05;2.47;;;;;;;11.16;100.00;99862.09;5026118;28;20358;-77
2022/10/01 04:25:11;;;;;;;2.38;1.95;;;;;;;11.25;100.00;99880.47;5027079;28;20021;-76
2022/10/01 04:27:41;;;;;;;2.28;2.08;;;;;;;11.27;100.00;99878.06;5030352;28;20033;-78
2022/10/01 04:30:08;;;;;;;2.72;2.20;;;;;;;11.33;100.00;99871.63;5028812;28;20396;-79
2022/10/01 04:32:33;;;;;;;3.92;2.22;;;;;;;11.35;100.00;99874.03;5029325;28;20065;-78
2022/10/01 04:35:01;;;;;;;2.95;2.42;;;;;;;11.32;100.00;99866.41;5031895;28;20036;-77
2022/10/01 04:37:27;;;;;;;5.07;3.10;;;;;;;11.35;100.00;99879.63;5025782;28;20029;-77
2022/10/01 04:39:53;;;;;;;3.10;2.22;;;;;;;11.33;100.00;99879.22;5028611;28;20029;-78
2022/10/01 04:42:19;;;;;;;3.00;2.70;;;;;;;11.41;100.00;99883.59;5029624;28;20509;-77
2022/10/01 04:44:45;;;;;;;3.38;3.08;;;;;;;11.33;100.00;99890.44;5030318;28;20029;-77
2022/10/01 04:47:10;;;;;;;3.97;3.40;;;;;;;11.30;100.00;99896.84;5029930;28;20035;-77
2022/10/01 04:49:35;;;;;;;4.13;3.42;;;;;;;11.36;100.00;99903.63;5030137;28;20374;-77
2022/10/01 04:52:01;;;;;;;5.18;3.60;;;;;;;11.42;100.00;99902.00;5028955;28;20056;-77
2022/10/01 04:54:26;;;;;;;3.58;3.17;;;;;;;11.45;100.00;99901.19;5030951;28;20080;-77
2022/10/01 04:56:52;;;;;;;4.75;3.90;;;;;;;11.46;100.00;99908.38;5026072;28;20121;-78
2022/10/01 04:59:18;;;;;;;5.03;3.20;;;;;;;11.48;100.00;99900.38;5028813;28;20037;-77
2022/10/01 05:01:43;;;;;;;6.22;4.85;;;;;;;11.48;100.00;99908.78;5027507;28;20061;-78
2022/10/01 05:04:09;;;;;;;4.35;3.95;;;;;;;11.47;100.00;99914.78;5022461;28;20025;-78
2022/10/01 05:06:34;;;;;;;5.07;4.15;;;;;;;11.51;100.00;99913.56;5030601;28;20025;-77
2022/10/01 05:09:00;;;;;;;6.68;4.65;;;;;;;11.51;100.00;99916.38;5029897;28;20436;-77
2022/10/01 05:11:25;;;;;;;5.13;4.70;;;;;;;11.50;100.00;99914.75;5026842;28;20030;-78
2022/10/01 05:13:50;;;;;;;6.15;4.78;;;;;;;11.58;100.00;99913.53;5029819;28;20374;-76
2022/10/01 05:16:16;;;;;;;4.70;4.25;;;;;;;11.54;100.00;99915.53;5032115;28;20064;-77
2022/10/01 05:18:42;;;;;;;6.82;5.93;;;;;;;11.63;100.00;99917.09;5030419;28;20398;-77
2022/10/01 05:21:14;;;;;;;7.75;6.97;;;;;;;11.57;100.00;99920.34;5028383;28;20021;-78
2022/10/01 05:23:40;;;;;;;7.00;6.10;;;;;;;11.57;100.00;99923.16;5024912;28;20032;-77
2022/10/01 05:26:05;;;;;;;8.80;7.57;;;;;;;11.60;100.00;99930.72;5029247;28;20120;-77
2022/10/01 05:28:32;;;;;;;7.32;6.63;;;;;;;11.62;100.00;99927.53;5026510;28;20021;-76
2022/10/01 05:31:02;;;;;;;9.38;7.38;;;;;;;11.62;100.00;99943.56;5027118;28;20123;-78
2022/10/01 05:33:32;;;;;;;6.85;5.78;;;;;;;11.60;100.00;99936.34;5019889;28;20025;-77
2022/10/01 05:35:58;;;;;;;8.88;6.72;;;;;;;11.68;100.00;99942.72;5024464;28;20051;-77
2022/10/01 05:38:23;;;;;;;9.40;8.38;;;;;;;11.63;100.00;99937.53;5021518;28;20033;-77
2022/10/01 05:40:49;;;;;;;7.32;6.57;;;;;;;11.58;100.00;99938.75;5017541;28;20457;-77
2022/10/01 05:43:14;;;;;;;6.63;6.03;;;;;;;11.63;100.00;99942.34;5024098;28;20049;-78
2022/10/01 05:45:40;;;;;;;8.60;6.22;;;;;;;11.67;100.00;99946.72;5026712;28;20091;-78
2022/10/01 05:48:07;;;;;;;11.77;8.80;;;;;;;11.69;100.00;99954.72;5023186;28;20108;-78
2022/10/01 05:50:38;;;;;;;8.07;7.28;;;;;;;11.70;100.00;99956.31;5030458;28;20057;-77
2022/10/01 05:53:03;;;;;;;11.27;8.10;;;;;;;11.70;100.00;99961.91;5023360;28;20017;-77
2022/10/01 05:55:32;;;;;;;8.55;6.75;;;;;;;11.68;100.00;99950.31;5037581;28;20029;-78
2022/10/01 05:58:06;;;;;;;10.88;8.65;;;;;;;11.67;100.00;99962.75;5018208;28;20029;-77
2022/10/01 06:00:32;;;;;;;9.55;7.10;;;;;;;11.67;100.00;99968.34;5016706;28;20151;-76
2022/10/01 06:03:00;;;;;;;13.82;8.65;;;;;;;11.65;100.00;99970.75;5017204;28;20030;-77
2022/10/01 06:05:26;;;;;;;10.43;9.43;;;;;;;11.69;100.00;99974.34;5015177;28;20639;-77
2022/10/01 06:07:52;;;;;;;13.40;10.70;;;;;;;11.70;100.00;99976.75;5014983;28;20033;-76
2022/10/01 06:10:18;;;;;;;12.60;9.73;;;;;;;11.68;100.00;99975.53;5020558;28;20402;-77
2022/10/01 06:12:44;;;;;;;9.48;8.43;;;;;;;11.77;100.00;99982.31;5019639;28;20017;-77
2022/10/01 06:15:11;;;;;;;13.95;11.32;;;;;;;11.77;100.00;99987.13;5021409;28;20029;-77
2022/10/01 06:17:42;;;;;;;10.52;9.45;;;;;;;11.76;100.00;99979.91;5025548;28;20071;-77
2022/10/01 06:20:10;;;;;;;9.18;8.30;;;;;;;11.72;100.00;99976.31;5028242;28;20032;-77
2022/10/01 06:22:36;;;;;;;13.38;9.70;;;;;;;11.77;100.00;99981.53;5024695;28;20118;-77
2022/10/01 06:25:01;;;;;;;13.20;11.35;;;;;;;11.80;100.00;99989.09;5022837;28;20171;-77
2022/10/01 06:27:26;;;;;;;13.73;11.43;;;;;;;11.83;100.00;99988.31;5017873;28;20072;-77
2022/10/01 06:29:52;;;;;;;13.73;11.02;;;;;;;11.82;100.00;99991.50;5023266;28;20069;-77
2022/10/01 06:32:18;;;;;;;11.32;10.13;;;;;;;11.88;100.00;99996.31;5023641;28;20415;-78
2022/10/01 06:34:44;;;;;;;16.17;12.05;;;;;;;11.90;100.00;99999.50;5012235;28;20469;-77
2022/10/01 06:37:09;;;;;;;11.88;9.93;;;;;;;11.86;100.00;99993.06;5018328;28;20043;-78
2022/10/01 06:39:34;;;;;;;15.93;12.55;;;;;;;11.81;100.00;99990.72;5027735;28;20033;-77
2022/10/01 06:42:00;;;;;;;12.77;10.82;;;;;;;11.81;100.00;99990.72;5028151;28;20032;-78
2022/10/01 06:44:25;;;;;;;12.40;10.43;;;;;;;11.83;100.00;99999.50;5026009;28;20064;-77
2022/10/01 06:46:51;;;;;;;12.60;8.85;;;;;;;11.90;100.00;100002.31;5028313;28;20053;-76
2022/10/01 06:49:19;;;;;;;14.45;9.73;;;;;;;11.92;100.00;100013.13;5022869;28;20108;-77
2022/10/01 06:54:48;;;;;;;10.60;9.43;;;;;;;11.93;100.00;100014.69;4998899;28;20037;-77
2022/10/01 06:57:14;;;;;;;17.13;10.65;;;;;;;11.94;100.00;100022.72;5004031;28;20022;-77
2022/10/01 06:59:39;;;;;;;9.57;8.57;;;;;;;11.96;100.00;100025.91;5009810;28;20133;-76
2022/10/01 07:02:05;;;;;;;18.05;11.25;;;;;;;12.00;100.00;100025.91;5018138;28;20049;-79
2022/10/01 07:04:30;;;;;;;10.93;9.63;;;;;;;11.95;100.00;100024.31;5029385;28;20408;-79
2022/10/01 07:06:56;;;;;;;10.30;9.10;;;;;;;12.03;100.00;100030.69;5023359;28;20446;-78
2022/10/01 07:09:25;;;;;;;13.32;9.32;;;;;;;12.10;100.00;100029.84;5020624;28;20044;-78
2022/10/01 07:11:51;;;;;;;16.08;12.02;;;;;;;12.21;100.00;100030.59;5022723;28;20096;-79
2022/10/01 07:14:19;;;;;;;13.85;11.88;;;;;;;12.23;100.00;100038.59;5023337;28;20033;-77
2022/10/01 07:16:44;;;;;;;14.82;9.52;;;;;;;12.26;100.00;100043.38;5018143;28;20035;-76
2022/10/01 07:19:10;;;;;;;12.75;9.95;;;;;;;12.28;100.00;100036.16;5022031;28;20033;-77
2022/10/01 07:21:36;;;;;;;15.00;11.07;;;;;;;12.38;100.00;100043.72;5024728;28;20029;-77
2022/10/01 07:24:01;;;;;;;13.90;8.23;;;;;;;12.36;100.00;100037.72;5033738;28;20036;-78
2022/10/01 07:26:27;;;;;;;21.88;11.18;;;;;;;12.49;100.00;100048.47;5021096;28;20067;-77
2022/10/01 07:28:53;;;;;;;20.88;10.88;;;;;;;12.38;100.00;100046.50;5020119;28;20032;-75
2022/10/01 07:31:19;;;;;;;10.45;5.95;;;;;;;12.53;100.00;100046.44;5010229;28;20131;-76
2022/10/01 07:33:44;;;;;;;20.15;10.13;;;;;;;12.81;100.00;100062.25;5021998;28;20174;-76
2022/10/01 07:36:11;;;;;;;12.15;8.48;;;;;;;12.68;100.00;100059.13;5033578;28;20040;-77
2022/10/01 07:38:37;;;;;;;12.65;6.60;;;;;;;12.53;100.00;100069.69;5023073;28;20029;-75
2022/10/01 07:41:03;;;;;;;14.85;7.93;;;;;;;12.65;100.00;100065.59;5022462;28;20025;-76
2022/10/01 07:43:30;;;;;;;15.05;8.13;;;;;;;12.66;100.00;100072.78;5020026;28;20072;-76
2022/10/01 07:45:56;;;;;;;13.77;7.03;;;;;;;12.77;100.00;100081.13;5023147;28;20052;-77
2022/10/01 07:48:23;;;;;;;16.52;7.22;;;;;;;12.85;100.00;100077.06;5029445;28;20520;-77
2022/10/01 07:50:49;;;;;;;11.48;6.90;;;;;;;12.94;100.00;100082.22;5022931;28;20033;-77
2022/10/01 07:53:15;;;;;;;21.02;8.48;;;;;;;13.03;100.00;100079.75;5023463;28;20064;-76
2022/10/01 07:55:41;;;;;;;11.15;6.85;;;;;;;12.89;100.00;100083.47;5020721;28;20033;-77
2022/10/01 07:58:08;;;;;;;15.93;8.25;;;;;;;13.04;100.00;100075.72;5023312;28;20048;-78
2022/10/01 08:00:34;;;;;;;18.23;6.78;;;;;;;13.15;100.00;100081.22;5019198;28;20052;-78
2022/10/01 08:02:59;;;;;;;13.65;6.32;;;;;;;13.21;100.00;100083.19;5019748;28;20034;-78
2022/10/01 08:05:30;;;;;;;16.38;8.50;;;;;;;13.31;100.00;100080.72;5021066;28;20025;-78
2022/10/01 08:08:05;;;;;;;15.57;7.13;;;;;;;13.17;100.00;100079.59;5032558;28;20560;-78
2022/10/01 08:10:34;;;;;;;13.38;6.78;;;;;;;13.37;100.00;100079.06;5018941;28;20033;-78
2022/10/01 08:13:03;;;;;;;8.32;5.57;;;;;;;13.35;100.00;100085.09;5018666;28;20549;-78
2022/10/01 08:15:28;;;;;;;10.07;5.00;;;;;;;13.13;100.00;100089.28;5022349;28;20079;-78
2022/10/01 08:17:54;;;;;;;18.98;7.00;;;;;;;13.40;100.00;100095.09;5023199;28;20539;-78
2022/10/01 08:20:20;;;;;;;10.40;5.25;;;;;;;13.14;100.00;100107.75;5023035;28;20029;-77
2022/10/01 08:22:45;;;;;;;13.82;7.07;;;;;;;13.41;100.00;100113.56;5023370;28;20478;-78
2022/10/01 08:25:11;;;;;;;20.55;6.57;;;;;;;13.35;100.00;100112.41;5026331;28;22568;-78
2022/10/01 08:27:36;;;;;;;17.92;6.28;;;;;;;13.21;100.00;100119.69;5028618;28;20041;-78
2022/10/01 08:30:02;;;;;;;19.80;6.82;;;;;;;13.34;100.00;100124.84;5025385;28;20516;-79
2022/10/01 08:32:27;;;;;;;17.02;5.97;;;;;;;13.32;100.00;100118.84;5022984;28;20041;-78
2022/10/01 08:34:54;;;;;;;10.15;5.50;;;;;;;13.22;100.00;100138.19;5019777;28;20850;-78
2022/10/01 08:37:23;;;;;;;10.95;6.13;;;;;;;13.37;100.00;100138.09;5020349;28;20025;-78
2022/10/01 08:39:49;;;;;;;14.98;6.22;;;;;;;13.37;100.00;100149.34;5019138;28;20226;-78
2022/10/01 08:42:36;;;;;;;15.80;7.00;;;;;;;13.48;100.00;100138.00;5019183;28;20021;-77
2022/10/01 08:45:09;;;;;;;12.85;7.05;;;;;;;13.56;100.00;100131.88;5019157;28;20041;-80
2022/10/01 08:47:38;;;;;;;15.18;7.43;;;;;;;13.54;100.00;100147.56;5020379;28;20071;-80
2022/10/01 08:50:18;;;;;;;14.15;6.22;;;;;;;13.71;100.00;100148.63;5022840;28;20037;-77
2022/10/01 08:52:53;;;;;;;9.65;6.43;;;;;;;13.83;100.00;100148.88;5019572;28;20029;-77
2022/10/01 08:55:23;;;;;;;9.32;6.35;;;;;;;13.94;100.00;100142.34;5013042;28;20071;-77
2022/10/01 08:57:53;;;;;;;10.95;5.50;;;;;;;13.77;100.00;100141.31;5018814;28;20026;-77
2022/10/01 09:00:20;;;;;;;11.93;5.95;;;;;;;13.83;100.00;100154.50;5018599;28;20053;-77
2022/10/01 09:02:46;;;;;;;18.30;6.93;;;;;;;13.93;100.00;100147.16;5021864;28;20123;-78
2022/10/01 09:05:42;;;;;;;18.45;8.07;;;;;;;14.06;100.00;100138.97;5023591;28;20036;-78
2022/10/01 09:08:15;;;;;;;15.30;6.57;;;;;;;14.17;100.00;100153.72;5021793;28;20044;-77
2022/10/01 09:10:52;;;;;;;11.90;5.20;;;;;;;14.08;100.00;100155.44;5021441;28;20036;-76
2022/10/01 09:13:38;;;;;;;8.40;4.32;;;;;;;14.27;100.00;100160.44;5024977;28;20086;-77
2022/10/01 09:16:41;;;;;;;17.00;5.75;;;;;;;14.18;100.00;100162.97;5020019;28;20483;-79
2022/10/01 09:19:44;;;;;;;10.77;5.10;;;;;;;14.20;100.00;100174.59;5011276;28;20038;-77
2022/10/01 09:22:16;;;;;;;15.25;5.28;;;;;;;14.24;100.00;100172.53;5018631;28;20021;-78
2022/10/01 09:24:41;;;;;;;12.35;3.95;;;;;;;14.32;100.00;100170.44;5022922;28;20034;-76
2022/10/01 09:27:25;;;;;;;15.60;4.07;;;;;;;14.44;100.00;100179.13;5014890;28;20379;-76
2022/10/01 09:29:59;;;;;;;10.98;4.03;;;;;;;14.17;100.00;100178.25;5019031;28;20029;-76
2022/10/01 09:32:34;;;;;;;11.23;3.15;;;;;;;14.21;100.00;100173.41;5020631;28;20060;-75
2022/10/01 09:42:39;;;;;;;11.73;4.00;;;;;;;14.60;100.00;100183.38;5011311;28;20057;-74
2022/10/01 09:45:05;;;;;;;11.05;4.15;;;;;;;14.67;100.00;100188.91;5014954;28;20467;-74
2022/10/01 09:47:31;;;;;;;16.60;4.68;;;;;;;14.73;100.00;100186.44;5034115;28;20120;-74
2022/10/01 09:49:58;;;;;;;15.13;4.10;;;;;;;14.88;100.00;100189.84;5051787;23;20120;-74
2022/10/01 09:52:38;;;;;;;9.88;4.70;;;;;;;14.71;100.00;100184.03;5030956;28;20037;-74
2022/10/01 09:55:36;;;;;;;14.93;4.65;;;;;;;14.88;100.00;100195.47;5036823;28;20021;-74
2022/10/01 09:58:03;;;;;;;16.33;4.68;;;;;;;15.04;100.00;100193.63;5031348;28;20032;-74
2022/10/01 10:00:29;;;;;;;10.48;3.65;;;;;;;15.13;100.00;100187.44;5027426;28;20033;-74
2022/10/01 10:02:55;;;;;;;12.73;3.28;;;;;;;15.24;100.00;100195.72;5042548;28;20029;-75
2022/10/01 10:05:23;;;;;;;12.35;3.90;;;;;;;15.09;100.00;100192.34;5030296;28;20033;-75
2022/10/01 10:07:56;;;;;;;22.75;5.25;;;;;;;14.75;100.00;100201.69;5037527;28;20025;-75
2022/10/01 10:10:24;;;;;;;16.30;4.78;;;;;;;14.58;100.00;100202.72;5041395;28;20125;-75
2022/10/01 10:12:56;;;;;;;15.98;4.75;;;;;;;14.60;100.00;100201.06;5033849;28;20032;-75
2022/10/01 10:15:25;;;;;;;14.35;4.88;;;;;;;14.64;100.00;100223.56;5043238;28;20052;-75
2022/10/01 10:17:51;;;;;;;21.33;4.93;;;;;;;14.68;100.00;100223.53;5045238;28;20087;-75
2022/10/01 10:20:27;;;;;;;17.70;4.40;;;;;;;14.63;100.00;100222.78;5046535;28;20012;-75
2022/10/01 10:22:53;;;;;;;15.40;4.40;;;;;;;14.63;100.00;100227.59;5044469;28;20021;-75
2022/10/01 10:25:23;;;;;;;12.15;4.30;;;;;;;14.68;100.00;100218.69;5049689;28;20449;-74
2022/10/01 10:27:55;;;;;;;10.48;2.92;;;;;;;14.87;100.00;100231.31;5042674;28;20032;-74
2022/10/01 10:30:23;;;;;;;19.73;3.55;;;;;;;14.95;100.00;100232.81;5038795;28;20031;-74
2022/10/01 10:32:50;;;;;;;14.75;4.75;;;;;;;15.08;100.00;100230.22;5034242;28;20531;-75
2022/10/01 10:35:24;;;;;;;18.10;4.53;;;;;;;15.18;100.00;100237.72;5042387;28;20025;-75
2022/10/01 10:37:56;;;;;;;13.90;3.65;;;;;;;15.23;100.00;100237.22;5043682;28;20035;-75
2022/10/01 10:40:25;;;;;;;19.75;4.13;;;;;;;15.13;100.00;100251.50;5028073;28;20032;-75
2022/10/01 10:42:56;;;;;;;10.18;3.40;;;;;;;14.93;100.00;100251.38;5045834;28;20496;-75
2022/10/01 10:45:30;;;;;;;15.63;4.30;;;;;;;14.82;100.00;100268.41;5047911;28;20415;-75
2022/10/01 10:47:56;;;;;;;17.17;2.95;;;;;;;14.76;100.00;100265.25;5034748;28;20111;-75
2022/10/01 10:50:44;;;;;;;18.40;3.20;;;;;;;14.66;100.00;100274.66;5038376;28;20041;-75
2022/10/01 10:53:27;;;;;;;19.05;3.97;;;;;;;14.53;100.00;100287.66;5042681;28;20029;-75
2022/10/01 10:55:57;;;;;;;18.50;2.92;;;;;;;14.50;100.00;100283.63;5034510;28;20460;-75
2022/10/01 10:58:27;;;;;;;22.92;4.38;;;;;;;14.54;100.00;100283.59;5041468;28;20108;-75
2022/10/01 11:00:56;;;;;;;17.10;4.13;;;;;;;14.59;100.00;100294.47;5047684;28;20036;-74
2022/10/01 11:03:25;;;;;;;17.17;4.30;;;;;;;14.53;100.00;100296.91;5042135;28;20016;-74
2022/10/01 11:05:55;;;;;;;11.90;3.17;;;;;;;14.51;99.49;100299.31;5024932;28;20490;-75
2022/10/01 11:08:24;;;;;;;18.88;3.80;;;;;;;14.61;99.79;100315.34;5025119;28;20047;-75
2022/10/01 11:11:24;;;;;;;14.68;3.72;;;;;;;14.54;97.69;100314.59;5036759;28;20068;-75
2022/10/01 11:14:14;;;;;;;13.43;3.47;;;;;;;14.53;96.35;100327.06;5034691;28;20543;-74
2022/10/01 11:17:14;;;;;;;13.80;4.88;;;;;;;14.70;96.59;100331.75;5027854;28;20581;-75
2022/10/01 11:19:57;;;;;;;12.48;3.22;;;;;;;14.90;96.38;100328.28;5030179;28;20039;-74
2022/10/01 11:22:34;;;;;;;15.75;3.75;;;;;;;15.13;96.78;100356.56;5031785;28;20031;-75
2022/10/01 11:25:16;;;;;;;14.80;2.25;;;;;;;14.57;98.42;100359.66;5029935;28;21465;-75
2022/10/01 11:28:10;;;;;;;7.55;2.00;;;;;;;14.11;100.00;100365.69;5018002;28;20152;-75
2022/10/01 11:30:57;;;;;;;7.43;1.90;;;;;;;14.14;100.00;100367.66;5029102;28;20450;-75
2022/10/01 11:33:43;;;;;;;5.70;1.52;;;;;;;14.02;100.00;100386.66;5027855;28;20036;-75
2022/10/01 11:36:25;;;;;;;6.18;2.65;;;;;;;13.99;100.00;100383.84;5029976;28;20024;-75
2022/10/01 11:38:58;;;;;;;6.57;2.47;;;;;;;13.98;100.00;100388.69;5035201;28;20029;-75